sensor_id;sensor_type;location;lat;lon;timestamp;pressure;altitude;pressure_sealevel;temperature;humidity
6668;BME280;3370;47.712;9.082;2022-08-19T00:01:48;96639.91;;;17.21;100.00
6668;BME280;3370;47.712;9.082;2022-08-19T00:04:17;96643.56;;;17.30;100.00
6668;BME280;3370;47.712;9.082;2022-08-19T00:06:46;96651.59;;;17.16;100.00
6668;BME280;3370;47.712;9.082;2022-08-19T00:09:15;96653.28;;;17.17;100.00
6668;BME280;3370;47.712;9.082;2022-08-19T00:11:42;96664.47;;;17.17;100.00
6668;BME280;3370;47.712;9.082;2022-08-19T00:14:12;96666.13;;;17.30;100.00
6668;BME280;3370;47.712;9.082;2022-08-19T00:16:40;96663.28;;;17.21;100.00
6668;BME280;3370;47.712;9.082;2022-08-19T00:19:07;96652.25;;;17.52;100.00
6668;BME280;3370;47.712;9.082;2022-08-19T00:21:33;96653.81;;;17.43;100.00
6668;BME280;3370;47.712;9.082;2022-08-19T00:24:07;96650.41;;;17.31;100.00
6668;BME280;3370;47.712;9.082;2022-08-19T00:26:34;96649.81;;;17.28;100.00
6668;BME280;3370;47.712;9.082;2022-08-19T00:29:00;96647.34;;;17.26;100.00
6668;BME280;3370;47.712;9.082;2022-08-19T00:31:26;96650.53;;;17.18;100.00
6668;BME280;3370;47.712;9.082;2022-08-19T00:33:54;96662.47;;;17.21;100.00
6668;BME280;3370;47.712;9.082;2022-08-19T00:36:20;96659.00;;;17.43;100.00
6668;BME280;3370;47.712;9.082;2022-08-19T00:38:46;96660.84;;;17.63;100.00
6668;BME280;3370;47.712;9.082;2022-08-19T00:41:16;96652.72;;;17.46;100.00
6668;BME280;3370;47.712;9.082;2022-08-19T00:44:05;96645.50;;;17.49;100.00
6668;BME280;3370;47.712;9.082;2022-08-19T00:46:33;96646.91;;;17.65;100.00
6668;BME280;3370;47.712;9.082;2022-08-19T00:49:39;96655.34;;;17.46;100.00
6668;BME280;3370;47.712;9.082;2022-08-19T00:52:19;96661.03;;;17.39;100.00
6668;BME280;3370;47.712;9.082;2022-08-19T00:54:48;96664.81;;;17.35;100.00
6668;BME280;3370;47.712;9.082;2022-08-19T00:57:18;96665.75;;;17.34;100.00
6668;BME280;3370;47.712;9.082;2022-08-19T00:59:48;96655.34;;;17.34;100.00
6668;BME280;3370;47.712;9.082;2022-08-19T01:02:18;96650.97;;;17.35;100.00
6668;BME280;3370;47.712;9.082;2022-08-19T01:04:44;96659.59;;;17.47;100.00
6668;BME280;3370;47.712;9.082;2022-08-19T01:07:10;96657.94;;;17.57;100.00
6668;BME280;3370;47.712;9.082;2022-08-19T01:09:36;96664.16;;;17.66;100.00
6668;BME280;3370;47.712;9.082;2022-08-19T01:12:02;96653.91;;;17.53;100.00
6668;BME280;3370;47.712;9.082;2022-08-19T01:14:29;96653.91;;;17.53;100.00
6668;BME280;3370;47.712;9.082;2022-08-19T01:16:56;96650.88;;;17.48;100.00
6668;BME280;3370;47.712;9.082;2022-08-19T01:19:37;96642.59;;;17.42;100.00
6668;BME280;3370;47.712;9.082;2022-08-19T01:24:32;96634.44;;;17.36;100.00
6668;BME280;3370;47.712;9.082;2022-08-19T01:26:58;96635.66;;;17.32;100.00
6668;BME280;3370;47.712;9.082;2022-08-19T01:29:24;96641.16;;;17.50;100.00
6668;BME280;3370;47.712;9.082;2022-08-19T01:31:50;96635.50;;;17.44;100.00
6668;BME280;3370;47.712;9.082;2022-08-19T01:34:19;96636.44;;;17.43;100.00
6668;BME280;3370;47.712;9.082;2022-08-19T01:36:46;96627.09;;;17.52;100.00
6668;BME280;3370;47.712;9.082;2022-08-19T01:39:17;96640.94;;;17.41;100.00
6668;BME280;3370;47.712;9.082;2022-08-19T01:41:45;96633.84;;;17.43;100.00
6668;BME280;3370;47.712;9.082;2022-08-19T01:44:12;96634.69;;;17.44;100.00
6668;BME280;3370;47.712;9.082;2022-08-19T01:46:38;96639.22;;;17.63;100.00
6668;BME280;3370;47.712;9.082;2022-08-19T01:49:06;96637.56;;;17.62;100.00
6668;BME280;3370;47.712;9.082;2022-08-19T01:51:32;96640.66;;;17.56;100.00
6668;BME280;3370;47.712;9.082;2022-08-19T01:53:58;96641.88;;;17.52;100.00
6668;BME280;3370;47.712;9.082;2022-08-19T01:56:24;96637.47;;;17.52;100.00
6668;BME280;3370;47.712;9.082;2022-08-19T01:59:02;96633.84;;;17.43;100.00
6668;BME280;3370;47.712;9.082;2022-08-19T02:01:28;96616.84;;;17.39;100.00
6668;BME280;3370;47.712;9.082;2022-08-19T02:03:58;96616.03;;;17.39;100.00
6668;BME280;3370;47.712;9.082;2022-08-19T02:06:26;96613.22;;;17.63;100.00
6668;BME280;3370;47.712;9.082;2022-08-19T02:08:52;96613.22;;;17.63;100.00
6668;BME280;3370;47.712;9.082;2022-08-19T02:11:25;96615.13;;;17.61;100.00
6668;BME280;3370;47.712;9.082;2022-08-19T02:13:53;96611.56;;;17.73;100.00
6668;BME280;3370;47.712;9.082;2022-08-19T02:16:20;96613.16;;;17.86;100.00
6668;BME280;3370;47.712;9.082;2022-08-19T02:18:47;96613.56;;;17.70;100.00
6668;BME280;3370;47.712;9.082;2022-08-19T02:21:17;96606.88;;;17.56;100.00
6668;BME280;3370;47.712;9.082;2022-08-19T02:23:44;96613.41;;;17.50;100.00
6668;BME280;3370;47.712;9.082;2022-08-19T02:26:11;96614.44;;;17.59;100.00
6668;BME280;3370;47.712;9.082;2022-08-19T02:28:38;96625.69;;;17.48;100.00
6668;BME280;3370;47.712;9.082;2022-08-19T02:31:13;96622.03;;;17.39;100.00
6668;BME280;3370;47.712;9.082;2022-08-19T02:33:44;96616.59;;;17.42;100.00
6668;BME280;3370;47.712;9.082;2022-08-19T02:36:12;96615.59;;;17.55;100.00
6668;BME280;3370;47.712;9.082;2022-08-19T02:38:40;96617.75;;;17.82;100.00
6668;BME280;3370;47.712;9.082;2022-08-19T02:41:13;96617.22;;;17.78;100.00
6668;BME280;3370;47.712;9.082;2022-08-19T02:43:39;96627.84;;;17.75;100.00
6668;BME280;3370;47.712;9.082;2022-08-19T02:46:32;96623.63;;;17.63;100.00
6668;BME280;3370;47.712;9.082;2022-08-19T02:49:04;96623.97;;;17.58;100.00
6668;BME280;3370;47.712;9.082;2022-08-19T02:51:37;96637.63;;;17.39;100.00
6668;BME280;3370;47.712;9.082;2022-08-19T02:54:05;96635.38;;;17.35;100.00
6668;BME280;3370;47.712;9.082;2022-08-19T02:56:35;96629.59;;;17.31;100.00
6668;BME280;3370;47.712;9.082;2022-08-19T02:59:02;96641.91;;;17.29;100.00
6668;BME280;3370;47.712;9.082;2022-08-19T03:01:33;96632.59;;;17.27;100.00
6668;BME280;3370;47.712;9.082;2022-08-19T03:04:03;96624.91;;;17.25;100.00
6668;BME280;3370;47.712;9.082;2022-08-19T03:06:30;96617.81;;;17.27;100.00
6668;BME280;3370;47.712;9.082;2022-08-19T03:08:56;96623.81;;;17.28;100.00
6668;BME280;3370;47.712;9.082;2022-08-19T03:11:29;96628.56;;;17.34;100.00
6668;BME280;3370;47.712;9.082;2022-08-19T03:13:55;96627.16;;;17.30;100.00
6668;BME280;3370;47.712;9.082;2022-08-19T03:16:25;96626.66;;;17.36;100.00
6668;BME280;3370;47.712;9.082;2022-08-19T03:18:53;96623.47;;;17.32;100.00
6668;BME280;3370;47.712;9.082;2022-08-19T03:21:23;96628.66;;;17.32;100.00
6668;BME280;3370;47.712;9.082;2022-08-19T03:23:54;96629.75;;;17.30;100.00
6668;BME280;3370;47.712;9.082;2022-08-19T03:26:20;96624.19;;;17.34;100.00
6668;BME280;3370;47.712;9.082;2022-08-19T03:28:46;96629.72;;;17.41;100.00
6668;BME280;3370;47.712;9.082;2022-08-19T03:31:20;96632.66;;;17.48;100.00
6668;BME280;3370;47.712;9.082;2022-08-19T03:33:50;96631.50;;;17.73;100.00
6668;BME280;3370;47.712;9.082;2022-08-19T03:36:21;96631.69;;;17.49;100.00
6668;BME280;3370;47.712;9.082;2022-08-19T03:38:54;96629.97;;;17.38;100.00
6668;BME280;3370;47.712;9.082;2022-08-19T03:41:24;96631.84;;;17.36;100.00
6668;BME280;3370;47.712;9.082;2022-08-19T03:43:51;96638.59;;;17.27;100.00
6668;BME280;3370;47.712;9.082;2022-08-19T03:46:22;96634.59;;;17.23;100.00
6668;BME280;3370;47.712;9.082;2022-08-19T03:48:53;96635.28;;;17.25;100.00
6668;BME280;3370;47.712;9.082;2022-08-19T03:51:32;96630.56;;;17.30;100.00
6668;BME280;3370;47.712;9.082;2022-08-19T03:54:01;96630.00;;;17.27;100.00
6668;BME280;3370;47.712;9.082;2022-08-19T03:56:28;96626.66;;;17.36;100.00
6668;BME280;3370;47.712;9.082;2022-08-19T03:58:56;96620.66;;;17.35;100.00
6668;BME280;3370;47.712;9.082;2022-08-19T04:01:25;96613.78;;;17.34;100.00
6668;BME280;3370;47.712;9.082;2022-08-19T04:03:56;96612.38;;;17.30;100.00
6668;BME280;3370;47.712;9.082;2022-08-19T04:06:27;96610.84;;;17.39;100.00
6668;BME280;3370;47.712;9.082;2022-08-19T04:08:54;96607.38;;;17.38;100.00
6668;BME280;3370;47.712;9.082;2022-08-19T04:11:25;96606.94;;;17.33;100.00
6668;BME280;3370;47.712;9.082;2022-08-19T04:13:53;96606.25;;;17.20;100.00
6668;BME280;3370;47.712;9.082;2022-08-19T04:16:21;96600.13;;;17.21;100.00
6668;BME280;3370;47.712;9.082;2022-08-19T04:18:48;96599.28;;;17.32;100.00
6668;BME280;3370;47.712;9.082;2022-08-19T04:21:23;96604.13;;;17.25;100.00
6668;BME280;3370;47.712;9.082;2022-08-19T04:23:50;96593.97;;;17.22;100.00
6668;BME280;3370;47.712;9.082;2022-08-19T04:26:25;96594.81;;;17.22;100.00
6668;BME280;3370;47.712;9.082;2022-08-19T04:28:52;96603.41;;;17.23;100.00
6668;BME280;3370;47.712;9.082;2022-08-19T04:31:22;96596.13;;;17.17;100.00
6668;BME280;3370;47.712;9.082;2022-08-19T04:34:02;96612.28;;;17.09;100.00
6668;BME280;3370;47.712;9.082;2022-08-19T04:36:32;96619.84;;;17.12;100.00
6668;BME280;3370;47.712;9.082;2022-08-19T04:39:04;96619.72;;;17.14;100.00
6668;BME280;3370;47.712;9.082;2022-08-19T04:41:30;96626.56;;;17.15;100.00
6668;BME280;3370;47.712;9.082;2022-08-19T04:44:15;96624.81;;;17.15;100.00
6668;BME280;3370;47.712;9.082;2022-08-19T04:46:45;96632.94;;;17.11;100.00
6668;BME280;3370;47.712;9.082;2022-08-19T04:49:11;96638.16;;;17.11;100.00
6668;BME280;3370;47.712;9.082;2022-08-19T04:51:41;96640.03;;;17.09;100.00
6668;BME280;3370;47.712;9.082;2022-08-19T04:54:08;96643.00;;;17.15;100.00
6668;BME280;3370;47.712;9.082;2022-08-19T04:56:34;96644.03;;;17.24;100.00
6668;BME280;3370;47.712;9.082;2022-08-19T04:59:00;96641.09;;;17.29;100.00
6668;BME280;3370;47.712;9.082;2022-08-19T05:01:32;96653.50;;;17.25;100.00
6668;BME280;3370;47.712;9.082;2022-08-19T05:04:00;96645.19;;;17.31;100.00
6668;BME280;3370;47.712;9.082;2022-08-19T05:06:27;96652.75;;;17.34;100.00
6668;BME280;3370;47.712;9.082;2022-08-19T05:08:54;96655.13;;;17.37;100.00
6668;BME280;3370;47.712;9.082;2022-08-19T05:11:28;96662.22;;;17.35;100.00
6668;BME280;3370;47.712;9.082;2022-08-19T05:13:55;96667.16;;;17.38;100.00
6668;BME280;3370;47.712;9.082;2022-08-19T05:16:23;96672.84;;;17.32;100.00
6668;BME280;3370;47.712;9.082;2022-08-19T05:18:50;96665.66;;;17.24;100.00
6668;BME280;3370;47.712;9.082;2022-08-19T05:21:35;96667.66;;;17.21;100.00
6668;BME280;3370;47.712;9.082;2022-08-19T05:24:22;96671.19;;;17.31;100.00
6668;BME280;3370;47.712;9.082;2022-08-19T05:26:51;96676.06;;;17.24;100.00
6668;BME280;3370;47.712;9.082;2022-08-19T05:29:20;96673.56;;;17.23;100.00
6668;BME280;3370;47.712;9.082;2022-08-19T05:31:47;96684.78;;;17.23;100.00
6668;BME280;3370;47.712;9.082;2022-08-19T05:34:19;96687.97;;;17.16;100.00
6668;BME280;3370;47.712;9.082;2022-08-19T05:36:49;96687.75;;;17.19;100.00
6668;BME280;3370;47.712;9.082;2022-08-19T05:39:19;96682.91;;;17.37;100.00
6668;BME280;3370;47.712;9.082;2022-08-19T05:41:53;96687.63;;;17.32;100.00
6668;BME280;3370;47.712;9.082;2022-08-19T05:44:20;96691.75;;;17.34;100.00
6668;BME280;3370;47.712;9.082;2022-08-19T05:46:48;96689.97;;;17.23;100.00
6668;BME280;3370;47.712;9.082;2022-08-19T05:49:15;96693.41;;;17.24;100.00
6668;BME280;3370;47.712;9.082;2022-08-19T05:51:42;96692.22;;;17.28;100.00
6668;BME280;3370;47.712;9.082;2022-08-19T05:54:08;96691.25;;;17.52;100.00
6668;BME280;3370;47.712;9.082;2022-08-19T05:56:35;96682.97;;;17.58;100.00
6668;BME280;3370;47.712;9.082;2022-08-19T05:59:06;96684.75;;;17.57;100.00
6668;BME280;3370;47.712;9.082;2022-08-19T06:01:43;96678.25;;;17.52;100.00
6668;BME280;3370;47.712;9.082;2022-08-19T06:04:10;96683.19;;;17.55;100.00
6668;BME280;3370;47.712;9.082;2022-08-19T06:06:36;96676.13;;;17.46;100.00
6668;BME280;3370;47.712;9.082;2022-08-19T06:09:05;96681.59;;;17.42;100.00
6668;BME280;3370;47.712;9.082;2022-08-19T06:11:43;96675.09;;;17.37;100.00
6668;BME280;3370;47.712;9.082;2022-08-19T06:14:14;96678.03;;;17.32;100.00
6668;BME280;3370;47.712;9.082;2022-08-19T06:16:41;96665.88;;;17.44;100.00
6668;BME280;3370;47.712;9.082;2022-08-19T06:19:12;96664.28;;;17.53;100.00
6668;BME280;3370;47.712;9.082;2022-08-19T06:21:41;96668.44;;;17.55;100.00
6668;BME280;3370;47.712;9.082;2022-08-19T06:24:12;96680.47;;;17.56;100.00
6668;BME280;3370;47.712;9.082;2022-08-19T06:26:42;96685.78;;;17.66;100.00
6668;BME280;3370;47.712;9.082;2022-08-19T06:29:11;96688.19;;;17.47;100.00
6668;BME280;3370;47.712;9.082;2022-08-19T06:31:40;96680.28;;;17.48;100.00
6668;BME280;3370;47.712;9.082;2022-08-19T06:34:07;96685.53;;;17.69;100.00
6668;BME280;3370;47.712;9.082;2022-08-19T06:36:39;96682.28;;;17.44;100.00
6668;BME280;3370;47.712;9.082;2022-08-19T06:39:12;96685.34;;;17.38;100.00
6668;BME280;3370;47.712;9.082;2022-08-19T06:41:47;96686.41;;;17.47;100.00
6668;BME280;3370;47.712;9.082;2022-08-19T06:44:13;96677.69;;;17.37;100.00
6668;BME280;3370;47.712;9.082;2022-08-19T06:46:41;96683.59;;;17.39;100.00
6668;BME280;3370;47.712;9.082;2022-08-19T06:49:08;96683.59;;;17.39;100.00
6668;BME280;3370;47.712;9.082;2022-08-19T06:51:43;96687.50;;;17.22;100.00
6668;BME280;3370;47.712;9.082;2022-08-19T06:54:10;96689.75;;;17.27;100.00
6668;BME280;3370;47.712;9.082;2022-08-19T06:56:36;96694.72;;;17.30;100.00
6668;BME280;3370;47.712;9.082;2022-08-19T06:59:09;96690.81;;;17.35;100.00
6668;BME280;3370;47.712;9.082;2022-08-19T07:01:43;96688.09;;;17.25;100.00
6668;BME280;3370;47.712;9.082;2022-08-19T07:04:13;96687.03;;;17.28;100.00
6668;BME280;3370;47.712;9.082;2022-08-19T07:06:39;96698.34;;;17.38;100.00
6668;BME280;3370;47.712;9.082;2022-08-19T07:09:08;96697.53;;;17.38;100.00
6668;BME280;3370;47.712;9.082;2022-08-19T07:11:34;96699.19;;;17.28;100.00
6668;BME280;3370;47.712;9.082;2022-08-19T07:14:01;96696.91;;;17.46;100.00
6668;BME280;3370;47.712;9.082;2022-08-19T07:16:28;96688.41;;;17.43;100.00
6668;BME280;3370;47.712;9.082;2022-08-19T07:18:55;96687.09;;;17.49;100.00
6668;BME280;3370;47.712;9.082;2022-08-19T07:21:27;96691.03;;;17.43;100.00
6668;BME280;3370;47.712;9.082;2022-08-19T07:23:58;96691.59;;;17.47;100.00
6668;BME280;3370;47.712;9.082;2022-08-19T07:26:37;96696.94;;;17.57;100.00
6668;BME280;3370;47.712;9.082;2022-08-19T07:29:05;96702.84;;;17.48;100.00
6668;BME280;3370;47.712;9.082;2022-08-19T07:31:31;96704.72;;;17.46;100.00
6668;BME280;3370;47.712;9.082;2022-08-19T07:34:04;96706.88;;;17.40;100.00
6668;BME280;3370;47.712;9.082;2022-08-19T07:36:36;96710.28;;;17.52;100.00
6668;BME280;3370;47.712;9.082;2022-08-19T07:39:27;96708.28;;;17.33;100.00
6668;BME280;3370;47.712;9.082;2022-08-19T07:41:54;96706.50;;;17.45;100.00
6668;BME280;3370;47.712;9.082;2022-08-19T07:44:21;96711.94;;;17.53;100.00
6668;BME280;3370;47.712;9.082;2022-08-19T07:46:53;96713.91;;;17.72;100.00
6668;BME280;3370;47.712;9.082;2022-08-19T07:49:22;96712.97;;;17.62;100.00
6668;BME280;3370;47.712;9.082;2022-08-19T07:52:02;96714.38;;;17.55;100.00
6668;BME280;3370;47.712;9.082;2022-08-19T07:54:32;96716.75;;;17.58;100.00
6668;BME280;3370;47.712;9.082;2022-08-19T07:57:00;96715.44;;;17.63;100.00
6668;BME280;3370;47.712;9.082;2022-08-19T07:59:26;96714.13;;;17.69;100.00
6668;BME280;3370;47.712;9.082;2022-08-19T08:01:55;96717.72;;;17.57;100.00
6668;BME280;3370;47.712;9.082;2022-08-19T08:04:21;96716.69;;;17.37;100.00
6668;BME280;3370;47.712;9.082;2022-08-19T08:07:07;96722.69;;;17.37;100.00
6668;BME280;3370;47.712;9.082;2022-08-19T08:09:52;96728.13;;;17.34;100.00
6668;BME280;3370;47.712;9.082;2022-08-19T08:12:25;96731.69;;;17.33;100.00
6668;BME280;3370;47.712;9.082;2022-08-19T08:15:01;96727.53;;;17.42;100.00
6668;BME280;3370;47.712;9.082;2022-08-19T08:17:30;96732.31;;;17.69;100.00
6668;BME280;3370;47.712;9.082;2022-08-19T08:19:56;96735.66;;;17.71;100.00
6668;BME280;3370;47.712;9.082;2022-08-19T08:22:23;96735.31;;;17.65;100.00
6668;BME280;3370;47.712;9.082;2022-08-19T08:25:16;96747.59;;;17.40;100.00
6668;BME280;3370;47.712;9.082;2022-08-19T08:27:45;96747.88;;;17.37;100.00
6668;BME280;3370;47.712;9.082;2022-08-19T08:30:19;96753.06;;;17.37;100.00
6668;BME280;3370;47.712;9.082;2022-08-19T08:32:46;96746.56;;;17.42;100.00
6668;BME280;3370;47.712;9.082;2022-08-19T08:35:16;96743.72;;;17.57;100.00
6668;BME280;3370;47.712;9.082;2022-08-19T08:37:44;96756.47;;;17.49;100.00
6668;BME280;3370;47.712;9.082;2022-08-19T08:43:32;96748.91;;;17.57;100.00
6668;BME280;3370;47.712;9.082;2022-08-19T08:46:13;96759.53;;;17.54;100.00
6668;BME280;3370;47.712;9.082;2022-08-19T08:49:37;96760.72;;;17.61;100.00
6668;BME280;3370;47.712;9.082;2022-08-19T08:52:13;96763.66;;;17.79;100.00
6668;BME280;3370;47.712;9.082;2022-08-19T08:54:49;96760.72;;;17.61;100.00
6668;BME280;3370;47.712;9.082;2022-08-19T09:03:27;96770.78;;;17.32;100.00
6668;BME280;3370;47.712;9.082;2022-08-19T09:06:04;96772.06;;;17.26;100.00
6668;BME280;3370;47.712;9.082;2022-08-19T09:11:38;96775.63;;;17.48;100.00
6668;BME280;3370;47.712;9.082;2022-08-19T09:16:58;96786.47;;;17.41;100.00
6668;BME280;3370;47.712;9.082;2022-08-19T09:19:25;96781.75;;;17.58;100.00
6668;BME280;3370;47.712;9.082;2022-08-19T09:21:51;96780.56;;;17.51;100.00
6668;BME280;3370;47.712;9.082;2022-08-19T09:24:17;96788.63;;;17.59;100.00
6668;BME280;3370;47.712;9.082;2022-08-19T09:26:43;96780.94;;;17.46;100.00
6668;BME280;3370;47.712;9.082;2022-08-19T09:29:10;96789.34;;;17.50;100.00
6668;BME280;3370;47.712;9.082;2022-08-19T09:31:36;96785.88;;;17.38;100.00
6668;BME280;3370;47.712;9.082;2022-08-19T09:34:03;96789.09;;;17.30;100.00
6668;BME280;3370;47.712;9.082;2022-08-19T09:36:31;96792.38;;;17.32;100.00
6668;BME280;3370;47.712;9.082;2022-08-19T09:38:59;96789.78;;;17.32;100.00
6668;BME280;3370;47.712;9.082;2022-08-19T09:41:26;96793.56;;;17.28;100.00
6668;BME280;3370;47.712;9.082;2022-08-19T09:43:57;96789.09;;;17.30;100.00
6668;BME280;3370;47.712;9.082;2022-08-19T09:46:27;96795.31;;;17.28;100.00
6668;BME280;3370;47.712;9.082;2022-08-19T09:48:57;96798.06;;;17.26;100.00
6668;BME280;3370;47.712;9.082;2022-08-19T09:51:26;96798.28;;;17.23;100.00
6668;BME280;3370;47.712;9.082;2022-08-19T09:53:58;96799.69;;;17.27;100.00
6668;BME280;3370;47.712;9.082;2022-08-19T09:56:24;96806.56;;;17.28;100.00
6668;BME280;3370;47.712;9.082;2022-08-19T09:58:50;96801.81;;;17.22;100.00
6668;BME280;3370;47.712;9.082;2022-08-19T10:01:20;96807.38;;;17.17;100.00
6668;BME280;3370;47.712;9.082;2022-08-19T10:03:54;96812.78;;;17.14;100.00
6668;BME280;3370;47.712;9.082;2022-08-19T10:06:23;96810.63;;;16.97;100.00
6668;BME280;3370;47.712;9.082;2022-08-19T10:08:50;96809.09;;;16.94;100.00
6668;BME280;3370;47.712;9.082;2022-08-19T10:11:18;96807.69;;;16.90;100.00
6668;BME280;3370;47.712;9.082;2022-08-19T10:13:45;96816.19;;;16.92;100.00
6668;BME280;3370;47.712;9.082;2022-08-19T10:16:16;96823.69;;;16.84;100.00
6668;BME280;3370;47.712;9.082;2022-08-19T10:18:45;96821.41;;;16.79;100.00
6668;BME280;3370;47.712;9.082;2022-08-19T10:21:18;96826.28;;;16.84;100.00
6668;BME280;3370;47.712;9.082;2022-08-19T10:23:48;96819.00;;;16.89;100.00
6668;BME280;3370;47.712;9.082;2022-08-19T10:26:19;96817.50;;;16.98;100.00
6668;BME280;3370;47.712;9.082;2022-08-19T10:28:45;96817.34;;;16.88;100.00
6668;BME280;3370;47.712;9.082;2022-08-19T10:31:19;96822.69;;;16.98;100.00
6668;BME280;3370;47.712;9.082;2022-08-19T10:33:50;96824.91;;;16.91;100.00
6668;BME280;3370;47.712;9.082;2022-08-19T10:36:20;96819.00;;;17.00;100.00
6668;BME280;3370;47.712;9.082;2022-08-19T10:38:50;96815.78;;;16.85;100.00
6668;BME280;3370;47.712;9.082;2022-08-19T10:41:23;96824.06;;;16.91;100.00
6668;BME280;3370;47.712;9.082;2022-08-19T10:43:59;96824.47;;;16.97;100.00
6668;BME280;3370;47.712;9.082;2022-08-19T10:46:28;96835.28;;;16.91;100.00
6668;BME280;3370;47.712;9.082;2022-08-19T10:49:00;96837.94;;;16.78;100.00
6668;BME280;3370;47.712;9.082;2022-08-19T10:51:27;96838.88;;;17.01;100.00
6668;BME280;3370;47.712;9.082;2022-08-19T10:54:11;96846.25;;;16.83;100.00
6668;BME280;3370;47.712;9.082;2022-08-19T10:56:37;96841.59;;;16.76;100.00
6668;BME280;3370;47.712;9.082;2022-08-19T10:59:26;96854.56;;;16.76;100.00
6668;BME280;3370;47.712;9.082;2022-08-19T11:02:01;96852.25;;;16.84;100.00
6668;BME280;3370;47.712;9.082;2022-08-19T11:04:28;96846.78;;;16.76;100.00
6668;BME280;3370;47.712;9.082;2022-08-19T11:06:54;96843.81;;;16.93;100.00
6668;BME280;3370;47.712;9.082;2022-08-19T11:09:23;96838.88;;;17.01;100.00
6668;BME280;3370;47.712;9.082;2022-08-19T11:11:50;96845.00;;;17.00;100.00
6668;BME280;3370;47.712;9.082;2022-08-19T11:14:19;96846.19;;;17.08;100.00
6668;BME280;3370;47.712;9.082;2022-08-19T11:16:48;96843.56;;;16.96;100.00
6668;BME280;3370;47.712;9.082;2022-08-19T11:19:15;96855.38;;;17.00;100.00
6668;BME280;3370;47.712;9.082;2022-08-19T11:21:47;96854.94;;;17.07;100.00
6668;BME280;3370;47.712;9.082;2022-08-19T11:24:20;96848.75;;;16.96;100.00
6668;BME280;3370;47.712;9.082;2022-08-19T11:26:49;96849.44;;;16.87;100.00
6668;BME280;3370;47.712;9.082;2022-08-19T11:29:18;96855.06;;;16.81;100.00
6668;BME280;3370;47.712;9.082;2022-08-19T11:31:49;96849.88;;;16.81;100.00
6668;BME280;3370;47.712;9.082;2022-08-19T11:34:20;96860.25;;;16.81;100.00
6668;BME280;3370;47.712;9.082;2022-08-19T11:36:48;96865.47;;;16.81;100.00
6668;BME280;3370;47.712;9.082;2022-08-19T11:39:16;96861.72;;;16.85;100.00
6668;BME280;3370;47.712;9.082;2022-08-19T11:41:43;96863.13;;;16.89;100.00
6668;BME280;3370;47.712;9.082;2022-08-19T11:44:09;96870.00;;;16.90;100.00
6668;BME280;3370;47.712;9.082;2022-08-19T11:46:37;96865.75;;;16.89;100.00
6668;BME280;3370;47.712;9.082;2022-08-19T11:49:05;96859.84;;;16.87;100.00
6668;BME280;3370;47.712;9.082;2022-08-19T11:51:33;96871.63;;;16.91;100.00
6668;BME280;3370;47.712;9.082;2022-08-19T11:54:00;96861.03;;;16.94;100.00
6668;BME280;3370;47.712;9.082;2022-08-19T11:56:27;96865.31;;;16.95;100.00
6668;BME280;3370;47.712;9.082;2022-08-19T11:58:54;96865.75;;;17.00;100.00
6668;BME280;3370;47.712;9.082;2022-08-19T12:01:24;96855.38;;;17.00;100.00
6668;BME280;3370;47.712;9.082;2022-08-19T12:03:52;96856.13;;;17.02;100.00
6668;BME280;3370;47.712;9.082;2022-08-19T12:06:24;96852.06;;;16.98;100.00
6668;BME280;3370;47.712;9.082;2022-08-19T12:08:55;96846.88;;;16.98;100.00
6668;BME280;3370;47.712;9.082;2022-08-19T12:11:23;96842.88;;;17.05;100.00
6668;BME280;3370;47.712;9.082;2022-08-19T12:13:50;96855.44;;;17.12;100.00
6668;BME280;3370;47.712;9.082;2022-08-19T12:16:20;96852.84;;;17.12;100.00
6668;BME280;3370;47.712;9.082;2022-08-19T12:18:49;96852.16;;;17.21;100.00
6668;BME280;3370;47.712;9.082;2022-08-19T12:21:24;96852.03;;;17.22;100.00
6668;BME280;3370;47.712;9.082;2022-08-19T12:23:54;96854.38;;;17.25;100.00
6668;BME280;3370;47.712;9.082;2022-08-19T12:26:20;96859.47;;;17.27;100.00
6668;BME280;3370;47.712;9.082;2022-08-19T12:28:46;96855.81;;;17.30;100.00
6668;BME280;3370;47.712;9.082;2022-08-19T12:31:14;96859.72;;;17.35;100.00
6668;BME280;3370;47.712;9.082;2022-08-19T12:33:41;96857.84;;;17.37;100.00
6668;BME280;3370;47.712;9.082;2022-08-19T12:36:10;96860.66;;;17.46;100.00
6668;BME280;3370;47.712;9.082;2022-08-19T12:38:37;96858.66;;;17.49;100.00
6668;BME280;3370;47.712;9.082;2022-08-19T12:41:05;96854.66;;;17.45;100.00
6668;BME280;3370;47.712;9.082;2022-08-19T12:43:33;96864.22;;;17.44;100.00
6668;BME280;3370;47.712;9.082;2022-08-19T12:46:01;96859.03;;;17.44;100.00
6668;BME280;3370;47.712;9.082;2022-08-19T12:48:27;96859.25;;;17.41;100.00
6668;BME280;3370;47.712;9.082;2022-08-19T12:50:53;96868.00;;;17.40;100.00
6668;BME280;3370;47.712;9.082;2022-08-19T12:53:19;96872.72;;;17.47;100.00
6668;BME280;3370;47.712;9.082;2022-08-19T12:55:45;96865.31;;;17.53;100.00
6668;BME280;3370;47.712;9.082;2022-08-19T12:58:11;96863.03;;;17.60;100.00
6668;BME280;3370;47.712;9.082;2022-08-19T13:00:38;96870.63;;;17.63;100.00
6668;BME280;3370;47.712;9.082;2022-08-19T13:03:04;96867.53;;;17.58;100.00
6668;BME280;3370;47.712;9.082;2022-08-19T13:05:33;96872.63;;;17.59;100.00
6668;BME280;3370;47.712;9.082;2022-08-19T13:08:00;96872.41;;;17.51;100.00
6668;BME280;3370;47.712;9.082;2022-08-19T13:10:32;96886.22;;;17.63;100.00
6668;BME280;3370;47.712;9.082;2022-08-19T13:13:04;96878.16;;;17.55;100.00
6668;BME280;3370;47.712;9.082;2022-08-19T13:15:35;96885.75;;;17.69;100.00
6668;BME280;3370;47.712;9.082;2022-08-19T13:18:01;96887.63;;;17.67;100.00
6668;BME280;3370;47.712;9.082;2022-08-19T13:20:28;96888.59;;;17.66;100.00
6668;BME280;3370;47.712;9.082;2022-08-19T13:22:54;96893.31;;;17.72;100.00
6668;BME280;3370;47.712;9.082;2022-08-19T13:25:21;96895.22;;;17.70;100.00
6668;BME280;3370;47.712;9.082;2022-08-19T13:27:48;96894.38;;;17.70;100.00
6668;BME280;3370;47.712;9.082;2022-08-19T13:30:20;96897.69;;;17.60;100.00
6668;BME280;3370;47.712;9.082;2022-08-19T13:33:05;96893.91;;;17.53;100.00
6668;BME280;3370;47.712;9.082;2022-08-19T13:35:49;96891.06;;;17.56;100.00
6668;BME280;3370;47.712;9.082;2022-08-19T13:38:19;96897.81;;;17.70;100.00
6668;BME280;3370;47.712;9.082;2022-08-19T13:40:46;96899.59;;;17.70;100.00
6668;BME280;3370;47.712;9.082;2022-08-19T13:43:13;96899.47;;;17.82;100.00